»·PEaware :: AAL1327 KLAS-KLAX

AAL1327 :: KLAS-KLAX

FLIGHT INFORMATION

Flight Status: Arrived
Operator:
American Airlines
More flights by this operator :: More flights under this callsign
Pilot: John C. (28478)
Aircraft: AIRBUS A320
(A320)
More flights by this aircraft type
Origin: KLAS McCarran Intl
United States
Destination: KLAX Los Angeles Intl
United States
More flights between these airports :: More routes between these airports
Route: +BOACH8 TNP SEAVU2
File this flight plan on PilotEdge
Remarks:
Altitude:
(Current/Filed)
30,000ft
Speed:
(Current/Filed)
482kts
Departed: 19-Mar-20 08:16 PM
Arrived: 19-Mar-20 09:01 PM
Distance/Time
Traveled:
205nm/0:45
Distance/Time
To Go:
Arrived

Flight Plot

Page will automatically refresh every two minutes.

Flight plan parsing failed; only flown route is shown


Map Options




Map Legend


Flown Route
Filed Route
Departure Airport
Arrival Airport
Navaid (VOR, NDB)
Fix

Horizontal Profiles

Position Reports

Time Latitude Longitude Heading Altitude Ground
Speed
19-Mar-20 19:39 36.080217 -115.136026 47 2065ft 0kts
19-Mar-20 19:40 36.080217 -115.136026 47 2065ft 0kts
19-Mar-20 19:41 36.080217 -115.136026 47 2065ft 0kts
19-Mar-20 19:41 36.080217 -115.136026 47 2065ft 0kts
19-Mar-20 19:43 36.080217 -115.136026 47 2065ft 0kts
19-Mar-20 19:44 36.080217 -115.136026 47 2065ft 0kts
19-Mar-20 19:44 36.080217 -115.136026 47 2065ft 0kts
19-Mar-20 19:45 36.080217 -115.136026 47 2065ft 0kts
19-Mar-20 19:47 36.080217 -115.136026 47 2065ft 0kts
19-Mar-20 19:47 36.080217 -115.136026 47 2065ft 0kts
19-Mar-20 19:48 36.080217 -115.136026 47 2065ft 0kts
19-Mar-20 19:49 36.080217 -115.136026 47 2065ft 0kts
19-Mar-20 19:50 36.080217 -115.136026 47 2065ft 0kts
19-Mar-20 19:51 36.080217 -115.136026 47 2065ft 0kts
19-Mar-20 19:52 36.080217 -115.136026 47 2065ft 0kts
19-Mar-20 19:53 36.080217 -115.136026 47 2065ft 0kts
19-Mar-20 19:54 36.080217 -115.136026 47 2065ft 0kts
19-Mar-20 19:55 36.080217 -115.136026 47 2065ft 0kts
19-Mar-20 19:56 36.080217 -115.136026 47 2065ft 0kts
19-Mar-20 19:57 36.080217 -115.136026 47 2065ft 0kts
19-Mar-20 19:58 36.080217 -115.136026 47 2065ft 0kts
19-Mar-20 19:59 36.080217 -115.136027 47 2065ft 0kts
19-Mar-20 20:00 36.080003 -115.136314 47 2066ft 2kts
19-Mar-20 20:01 36.079596 -115.136864 47 2068ft 2kts
19-Mar-20 20:02 36.079191 -115.137411 47 2069ft 1kts
19-Mar-20 20:03 36.078707 -115.137550 331 2072ft 2kts
19-Mar-20 20:04 36.078496 -115.137059 268 2071ft 0kts
19-Mar-20 20:05 36.078496 -115.137060 268 2071ft 0kts
19-Mar-20 20:06 36.078496 -115.137060 268 2070ft 0kts
19-Mar-20 20:07 36.078256 -115.141321 271 2085ft 22kts
19-Mar-20 20:08 36.078555 -115.148007 273 2105ft 17kts
19-Mar-20 20:09 36.080008 -115.154060 335 2125ft 26kts
19-Mar-20 20:10 36.087448 -115.157673 29 2120ft 20kts
19-Mar-20 20:11 36.094948 -115.153386 23 2086ft 33kts
19-Mar-20 20:12 36.097970 -115.152450 293 2078ft 0kts
19-Mar-20 20:13 36.097958 -115.152416 293 2078ft 0kts
19-Mar-20 20:14 36.097958 -115.152416 293 2078ft 0kts
19-Mar-20 20:15 36.096538 -115.154689 203 2088ft 58kts
19-Mar-20 20:16 36.058078 -115.177295 202 3852ft 198kts
19-Mar-20 20:17 36.006039 -115.222401 239 5571ft 265kts
19-Mar-20 20:18 35.966298 -115.297903 208 6961ft 264kts
19-Mar-20 20:19 35.894083 -115.311019 186 8721ft 274kts
19-Mar-20 20:20 35.815097 -115.310443 176 11247ft 314kts
19-Mar-20 20:21 35.718891 -115.299473 176 12307ft 378kts
19-Mar-20 20:22 35.611714 -115.297429 183 14262ft 392kts
19-Mar-20 20:23 35.501293 -115.301748 183 16143ft 402kts
19-Mar-20 20:24 35.388674 -115.306190 184 17828ft 411kts
19-Mar-20 20:25 35.273070 -115.310743 184 19333ft 420kts
19-Mar-20 20:26 35.155321 -115.315369 184 20686ft 429kts
19-Mar-20 20:27 35.040910 -115.351743 202 21856ft 432kts
19-Mar-20 20:28 34.927749 -115.403350 204 22969ft 439kts
19-Mar-20 20:29 34.812887 -115.455476 204 23927ft 447kts
19-Mar-20 20:30 34.695810 -115.508419 205 24859ft 453kts
19-Mar-20 20:31 34.577337 -115.561842 205 25677ft 457kts
19-Mar-20 20:32 34.458045 -115.615467 205 26482ft 460kts
19-Mar-20 20:33 34.339796 -115.668457 205 27283ft 460kts
19-Mar-20 20:34 34.219839 -115.722129 206 28008ft 464kts
19-Mar-20 20:35 34.123128 -115.814129 240 27884ft 435kts
19-Mar-20 20:36 34.085584 -115.951890 260 24405ft 433kts
19-Mar-20 20:37 34.064352 -116.093689 260 23830ft 426kts
19-Mar-20 20:38 34.043343 -116.233586 260 22836ft 424kts
19-Mar-20 20:39 34.022314 -116.372575 260 21840ft 419kts
19-Mar-20 20:40 34.003364 -116.510203 265 20716ft 410kts
19-Mar-20 20:41 33.992608 -116.645275 265 17953ft 401kts
19-Mar-20 20:42 33.982560 -116.769104 264 17050ft 351kts
19-Mar-20 20:43 33.973041 -116.886029 264 17045ft 380kts
19-Mar-20 20:44 33.962768 -117.010175 263 17055ft 340kts
19-Mar-20 20:45 33.953457 -117.121022 263 17045ft 332kts
19-Mar-20 20:46 33.944190 -117.230821 263 15741ft 331kts
19-Mar-20 20:47 33.934938 -117.338928 263 14520ft 322kts
19-Mar-20 20:48 33.955721 -117.441546 291 13354ft 320kts
19-Mar-20 20:49 33.990626 -117.539466 291 12032ft 320kts
19-Mar-20 20:50 34.011032 -117.640622 263 10341ft 307kts
19-Mar-20 20:51 34.001679 -117.736000 263 9548ft 274kts
19-Mar-20 20:52 33.992887 -117.826072 262 8262ft 267kts
19-Mar-20 20:53 33.984333 -117.914021 261 6993ft 261kts
19-Mar-20 20:54 33.975882 -117.999692 261 5783ft 256kts
19-Mar-20 20:55 33.967640 -118.084629 263 4926ft 249kts
19-Mar-20 20:56 33.959736 -118.167968 261 3607ft 251kts
19-Mar-20 20:57 33.950911 -118.251663 261 2246ft 244kts
19-Mar-20 20:58 33.943003 -118.328025 261 1009ft 217kts
19-Mar-20 20:59 33.936895 -118.387415 261 118ft 136kts
19-Mar-20 21:00 33.936657 -118.400223 270 121ft 10kts
19-Mar-20 21:01 33.936459 -118.403059 283 126ft 0kts
19-Mar-20 21:02 33.937811 -118.404256 355 129ft 21kts
19-Mar-20 21:03 33.941114 -118.403218 353 127ft 19kts
19-Mar-20 21:04 33.942081 -118.403722 264 127ft 4kts
19-Mar-20 21:05 33.942054 -118.404015 263 127ft 0kts
19-Mar-20 21:06 33.942054 -118.404015 263 127ft 0kts
19-Mar-20 21:07 33.942054 -118.404015 263 127ft 0kts
19-Mar-20 21:08 33.942054 -118.404015 263 127ft 0kts
19-Mar-20 21:09 33.942054 -118.404015 263 127ft 0kts
19-Mar-20 21:10 33.942054 -118.404015 263 127ft 0kts
19-Mar-20 21:11 33.942054 -118.404015 263 127ft 0kts
19-Mar-20 21:12 33.942054 -118.404015 263 127ft 0kts
19-Mar-20 21:13 33.942054 -118.404015 263 127ft 0kts
19-Mar-20 21:14 33.942054 -118.404015 263 127ft 0kts
19-Mar-20 21:15 33.942054 -118.404015 263 127ft 0kts

Navigation Log

Ident Type
Flight plan parsing failed, navigation log unavailable